createdAt,value
2017-10-11T00:00:32.159Z,11.14
2017-10-11T00:02:59.671Z,11.03
2017-10-11T00:05:27.184Z,11.05
2017-10-11T00:07:54.696Z,11.06
2017-10-11T00:10:22.208Z,11.10
2017-10-11T00:12:49.739Z,11.07
2017-10-11T00:15:17.257Z,11.16
2017-10-11T00:17:44.760Z,11.15
2017-10-11T00:20:12.273Z,11.19
2017-10-11T00:22:39.917Z,11.20
2017-10-11T00:25:07.462Z,11.20
2017-10-11T00:27:35.008Z,11.18
2017-10-11T00:30:02.525Z,11.17
2017-10-11T00:32:30.045Z,11.25
2017-10-11T00:34:57.597Z,11.26
2017-10-11T00:37:25.115Z,11.32
2017-10-11T00:39:52.613Z,11.21
2017-10-11T00:42:20.140Z,11.11
2017-10-11T00:49:23.707Z,11.07
2017-10-11T00:51:51.204Z,11.02
2017-10-11T00:54:18.740Z,11.05
2017-10-11T00:56:46.284Z,11.02
2017-10-11T00:59:13.800Z,11.13
2017-10-11T01:01:41.320Z,10.98
2017-10-11T01:04:08.832Z,10.87
2017-10-11T01:06:36.348Z,10.82
2017-10-11T01:09:03.867Z,10.81
2017-10-11T01:11:31.395Z,10.75
2017-10-11T01:13:58.908Z,10.70
2017-10-11T01:16:26.550Z,10.76
2017-10-11T01:18:54.120Z,10.80
2017-10-11T01:21:21.631Z,10.79
2017-10-11T01:23:49.140Z,10.73
2017-10-11T01:26:16.662Z,10.69
2017-10-11T01:28:44.195Z,10.64
2017-10-11T01:31:11.730Z,10.56
2017-10-11T01:33:39.253Z,10.49
2017-10-11T01:36:06.809Z,10.47
2017-10-11T01:38:34.331Z,10.48
2017-10-11T01:41:01.868Z,10.49
2017-10-11T01:43:29.428Z,10.53
2017-10-11T01:45:56.953Z,10.60
2017-10-11T01:48:24.466Z,10.55
2017-10-11T01:50:51.972Z,10.65
2017-10-11T01:53:19.483Z,10.63
2017-10-11T01:55:47.021Z,10.62
2017-10-11T01:58:14.531Z,10.63
2017-10-11T02:00:42.097Z,10.65
2017-10-11T02:03:09.610Z,10.64
2017-10-11T02:05:37.163Z,10.65
2017-10-11T02:08:04.672Z,10.70
2017-10-11T02:10:32.211Z,10.61
2017-10-11T02:12:59.717Z,10.62
2017-10-11T02:15:27.226Z,10.56
2017-10-11T02:17:54.739Z,10.62
2017-10-11T02:20:22.234Z,10.69
2017-10-11T02:22:49.747Z,10.64
2017-10-11T02:25:17.270Z,10.66
2017-10-11T02:27:44.787Z,10.57
2017-10-11T02:30:12.299Z,10.55
2017-10-11T02:32:39.829Z,10.51
2017-10-11T02:35:07.345Z,10.52
2017-10-11T02:37:34.855Z,10.73
2017-10-11T02:40:02.424Z,10.67
2017-10-11T02:42:29.956Z,10.65
2017-10-11T02:44:57.460Z,10.63
2017-10-11T02:47:24.993Z,10.58
2017-10-11T02:49:52.537Z,10.55
2017-10-11T02:52:20.044Z,10.54
2017-10-11T02:54:47.565Z,10.60
2017-10-11T02:57:15.072Z,10.58
2017-10-11T02:59:42.597Z,10.66
2017-10-11T03:02:10.115Z,10.64
2017-10-11T03:04:37.703Z,10.60
2017-10-11T03:07:05.215Z,10.61
2017-10-11T03:09:32.736Z,10.63
2017-10-11T03:12:00.270Z,10.50
2017-10-11T03:14:27.790Z,10.48
2017-10-11T03:16:55.328Z,10.46
2017-10-11T03:19:22.827Z,10.45
2017-10-11T03:21:50.348Z,10.43
2017-10-11T03:24:17.868Z,10.42
2017-10-11T03:26:45.394Z,10.41
2017-10-11T03:29:12.901Z,10.42
2017-10-11T03:31:40.419Z,10.40
2017-10-11T03:34:08.817Z,10.56
2017-10-11T03:36:36.329Z,10.41
2017-10-11T03:39:03.843Z,10.55
2017-10-11T03:41:31.364Z,10.41
2017-10-11T03:43:58.881Z,10.38
2017-10-11T03:46:26.417Z,10.39
2017-10-11T03:48:53.949Z,10.46
2017-10-11T03:51:21.456Z,10.45
2017-10-11T03:53:48.975Z,10.63
2017-10-11T03:56:16.487Z,10.57
2017-10-11T03:58:44.102Z,10.77
2017-10-11T04:01:11.613Z,10.74
2017-10-11T04:03:39.272Z,10.74
2017-10-11T04:06:06.800Z,10.69
2017-10-11T04:08:34.309Z,10.61
2017-10-11T04:11:01.825Z,10.51
2017-10-11T04:13:29.344Z,10.40
2017-10-11T04:15:56.868Z,10.44
2017-10-11T04:18:24.388Z,10.33
2017-10-11T04:20:51.901Z,10.31
2017-10-11T04:23:19.454Z,10.23
2017-10-11T04:25:46.962Z,10.19
2017-10-11T04:28:14.609Z,10.00
2017-10-11T04:30:42.136Z,9.90
2017-10-11T04:33:09.719Z,9.71
2017-10-11T04:35:37.243Z,9.70
2017-10-11T04:38:04.768Z,9.61
2017-10-11T04:40:32.308Z,9.48
2017-10-11T04:42:59.871Z,9.51
2017-10-11T04:45:27.392Z,9.41
2017-10-11T04:47:54.936Z,9.32
2017-10-11T04:50:22.443Z,9.28
2017-10-11T04:52:49.984Z,9.23
2017-10-11T04:55:17.511Z,9.14
2017-10-11T04:57:45.015Z,8.97
2017-10-11T05:00:12.534Z,8.85
2017-10-11T05:02:40.118Z,8.84
2017-10-11T05:05:07.675Z,8.69
2017-10-11T05:07:35.203Z,8.68
2017-10-11T05:10:02.704Z,8.75
2017-10-11T05:12:30.208Z,8.99
2017-10-11T05:14:57.739Z,8.90
2017-10-11T05:17:25.251Z,9.15
2017-10-11T05:19:52.790Z,8.99
2017-10-11T05:22:20.313Z,8.83
2017-10-11T05:24:47.834Z,8.72
2017-10-11T05:27:15.381Z,8.65
2017-10-11T05:29:42.909Z,8.70
2017-10-11T05:32:10.514Z,8.54
2017-10-11T05:34:38.058Z,8.50
2017-10-11T05:37:05.574Z,8.46
2017-10-11T05:39:33.199Z,8.30
2017-10-11T05:42:00.709Z,8.42
2017-10-11T05:44:28.309Z,8.26
2017-10-11T05:46:55.819Z,8.23
2017-10-11T05:49:23.427Z,8.45
2017-10-11T05:51:50.985Z,8.73
2017-10-11T05:54:18.554Z,8.79
2017-10-11T05:56:46.103Z,9.10
2017-10-11T05:59:13.607Z,9.39
2017-10-11T06:01:41.114Z,9.35
2017-10-11T06:04:08.611Z,9.25
2017-10-11T06:06:36.118Z,9.24
2017-10-11T06:09:03.627Z,9.19
2017-10-11T06:11:31.150Z,9.25
2017-10-11T06:13:58.660Z,9.32
2017-10-11T06:16:26.269Z,9.29
2017-10-11T06:18:53.780Z,9.47
2017-10-11T06:21:21.324Z,9.57
2017-10-11T06:23:48.834Z,9.76
2017-10-11T06:26:16.360Z,9.76
2017-10-11T06:28:43.887Z,9.80
2017-10-11T06:31:11.388Z,10.04
2017-10-11T06:33:38.898Z,10.16
2017-10-11T06:36:06.399Z,10.11
2017-10-11T06:38:33.942Z,10.12
2017-10-11T06:41:01.467Z,10.49
2017-10-11T06:43:28.997Z,10.84
2017-10-11T06:45:56.532Z,10.95
2017-10-11T06:48:24.052Z,10.96
2017-10-11T06:50:51.559Z,11.01
2017-10-11T06:53:19.076Z,11.07
2017-10-11T06:55:46.593Z,11.26
2017-10-11T06:58:14.124Z,11.35
2017-10-11T07:00:41.615Z,11.85
2017-10-11T07:03:09.169Z,11.57
2017-10-11T07:05:36.682Z,11.92
2017-10-11T07:08:04.200Z,12.43
2017-10-11T07:10:31.715Z,12.08
2017-10-11T07:12:59.272Z,12.55
2017-10-11T07:15:26.788Z,12.83
2017-10-11T07:17:54.299Z,12.81
2017-10-11T07:20:21.812Z,13.00
2017-10-11T07:22:49.333Z,13.81
2017-10-11T07:25:16.839Z,14.64
2017-10-11T07:27:44.349Z,14.87
2017-10-11T07:30:11.851Z,14.53
2017-10-11T07:32:39.370Z,14.82
2017-10-11T07:35:06.880Z,16.30
2017-10-11T07:37:34.383Z,16.29
2017-10-11T07:40:01.888Z,16.78
2017-10-11T07:42:29.409Z,17.22
2017-10-11T07:44:56.953Z,16.66
2017-10-11T07:47:24.628Z,16.40
2017-10-11T07:49:52.134Z,16.73
2017-10-11T07:52:19.668Z,16.86
2017-10-11T07:54:47.179Z,17.10
2017-10-11T07:57:14.884Z,16.25
2017-10-11T07:59:42.387Z,17.06
2017-10-11T08:02:09.898Z,20.28
2017-10-11T08:04:37.435Z,20.96
2017-10-11T08:07:04.943Z,21.52
2017-10-11T08:09:32.464Z,20.06
2017-10-11T08:12:00.037Z,20.74
2017-10-11T08:14:27.552Z,20.25
2017-10-11T08:16:55.074Z,21.84
2017-10-11T08:19:22.604Z,22.01
2017-10-11T08:21:50.124Z,23.24
2017-10-11T08:24:17.638Z,24.37
2017-10-11T08:26:45.155Z,25.14
2017-10-11T08:29:12.655Z,23.34
2017-10-11T08:31:40.174Z,24.68
2017-10-11T08:34:07.679Z,25.22
2017-10-11T08:36:35.204Z,26.54
2017-10-11T08:39:02.720Z,28.01
2017-10-11T08:41:30.221Z,27.33
2017-10-11T08:43:57.735Z,28.04
2017-10-11T08:46:25.261Z,27.55
2017-10-11T08:48:52.793Z,27.27
2017-10-11T08:51:20.317Z,28.47
2017-10-11T08:53:47.837Z,28.26
2017-10-11T08:56:15.352Z,27.97
2017-10-11T08:58:42.854Z,26.59
2017-10-11T09:01:10.396Z,30.00
2017-10-11T09:03:37.920Z,28.42
2017-10-11T09:06:05.459Z,30.34
2017-10-11T09:08:32.963Z,26.82
2017-10-11T09:11:00.465Z,27.93
2017-10-11T09:13:27.972Z,28.04
2017-10-11T09:15:55.485Z,29.02
2017-10-11T09:18:23.056Z,26.08
2017-10-11T09:20:50.556Z,29.06
2017-10-11T09:23:18.092Z,32.34
2017-10-11T09:25:45.604Z,31.54
2017-10-11T09:28:13.140Z,31.69
2017-10-11T09:30:40.643Z,29.66
2017-10-11T09:33:08.144Z,26.77
2017-10-11T09:35:35.670Z,29.95
2017-10-11T09:38:03.226Z,28.92
2017-10-11T09:40:30.724Z,30.08
2017-10-11T09:42:58.240Z,29.99
2017-10-11T09:45:25.769Z,28.16
2017-10-11T09:47:53.282Z,25.13
2017-10-11T09:50:20.880Z,26.40
2017-10-11T09:52:48.416Z,24.10
2017-10-11T09:55:15.939Z,24.64
2017-10-11T09:57:43.451Z,25.94
2017-10-11T10:00:10.948Z,24.80
2017-10-11T10:02:38.455Z,22.65
2017-10-11T10:05:05.959Z,22.36
2017-10-11T10:07:33.574Z,20.22
2017-10-11T10:10:01.117Z,20.14
2017-10-11T10:12:28.627Z,19.43
2017-10-11T10:14:56.136Z,19.01
2017-10-11T10:17:23.638Z,18.68
2017-10-11T10:19:51.239Z,23.57
2017-10-11T10:22:18.764Z,27.60
2017-10-11T10:24:46.290Z,29.46
2017-10-11T10:27:13.854Z,26.75
2017-10-11T10:29:41.365Z,27.08
2017-10-11T10:32:08.878Z,24.09
2017-10-11T10:34:36.393Z,22.27
2017-10-11T10:37:03.915Z,21.71
2017-10-11T10:39:31.418Z,21.38
2017-10-11T10:41:58.942Z,21.28
2017-10-11T10:44:26.465Z,21.49
2017-10-11T10:46:53.988Z,21.88
2017-10-11T10:49:21.494Z,25.68
2017-10-11T10:51:49.010Z,24.94
2017-10-11T10:54:16.549Z,26.01
2017-10-11T10:56:44.110Z,25.04
2017-10-11T10:59:11.615Z,25.36
2017-10-11T11:01:39.148Z,29.71
2017-10-11T11:04:06.653Z,30.34
2017-10-11T11:06:34.163Z,30.72
2017-10-11T11:09:01.700Z,24.01
2017-10-11T11:11:29.207Z,24.65
2017-10-11T11:13:56.720Z,27.80
2017-10-11T11:16:24.239Z,27.07
2017-10-11T11:18:51.746Z,28.16
2017-10-11T11:21:19.368Z,29.73
2017-10-11T11:23:46.870Z,31.61
2017-10-11T11:26:14.396Z,29.83
2017-10-11T11:28:41.913Z,28.65
2017-10-11T11:31:09.441Z,27.28
2017-10-11T11:33:36.955Z,24.11
2017-10-11T11:36:04.565Z,26.77
2017-10-11T11:38:32.091Z,28.35
2017-10-11T11:40:59.604Z,26.83
2017-10-11T11:43:28.820Z,25.07
2017-10-11T11:45:56.347Z,24.13
2017-10-11T11:48:23.879Z,25.15
2017-10-11T11:50:51.387Z,26.75
2017-10-11T11:53:18.898Z,28.64
2017-10-11T11:55:46.456Z,30.71
2017-10-11T11:58:14.005Z,31.84
2017-10-11T12:00:41.525Z,30.18
2017-10-11T12:03:09.036Z,28.56
2017-10-11T12:05:36.563Z,28.53
2017-10-11T12:08:04.087Z,28.65
2017-10-11T12:10:31.586Z,31.93
2017-10-11T12:12:59.118Z,31.64
2017-10-11T12:15:26.636Z,26.99
2017-10-11T12:17:54.148Z,27.31
2017-10-11T12:20:21.694Z,29.06
2017-10-11T12:22:49.240Z,28.99
2017-10-11T12:25:16.798Z,24.40
2017-10-11T12:27:44.311Z,26.51
2017-10-11T12:30:11.827Z,28.63
2017-10-11T12:32:39.335Z,28.31
2017-10-11T12:35:06.848Z,30.27
2017-10-11T12:37:34.375Z,29.67
2017-10-11T12:40:01.919Z,30.13
2017-10-11T12:42:29.444Z,27.82
2017-10-11T12:44:56.968Z,24.18
2017-10-11T12:47:24.488Z,25.41
2017-10-11T12:49:52.008Z,27.84
2017-10-11T12:52:19.535Z,25.49
2017-10-11T12:54:47.106Z,23.45
2017-10-11T12:57:14.634Z,22.87
2017-10-11T12:59:42.134Z,22.90
2017-10-11T13:02:09.652Z,22.16
2017-10-11T13:04:37.163Z,23.60
2017-10-11T13:07:04.703Z,22.32
2017-10-11T13:09:32.216Z,21.69
2017-10-11T13:11:59.763Z,24.31
2017-10-11T13:14:27.281Z,25.09
2017-10-11T13:16:54.862Z,28.39
2017-10-11T13:19:22.371Z,25.80
2017-10-11T13:21:49.904Z,24.25
2017-10-11T13:24:17.423Z,23.58
2017-10-11T13:26:44.967Z,22.46
2017-10-11T13:29:12.519Z,20.70
2017-10-11T13:31:40.036Z,21.71
2017-10-11T13:34:07.584Z,24.55
2017-10-11T13:36:35.098Z,27.07
2017-10-11T13:39:02.614Z,28.33
2017-10-11T13:41:30.123Z,27.90
2017-10-11T13:43:57.674Z,26.44
2017-10-11T13:46:25.200Z,25.96
2017-10-11T13:48:52.726Z,24.86
2017-10-11T13:51:20.236Z,25.10
2017-10-11T13:53:47.749Z,25.23
2017-10-11T13:56:15.259Z,26.13
2017-10-11T13:58:42.795Z,25.11
2017-10-11T14:01:10.330Z,24.71
2017-10-11T14:03:37.912Z,26.06
2017-10-11T14:06:05.494Z,27.32
2017-10-11T14:08:33.005Z,27.02
2017-10-11T14:11:00.512Z,26.57
2017-10-11T14:13:28.068Z,25.79
2017-10-11T14:15:55.569Z,26.68
2017-10-11T14:18:23.120Z,25.76
2017-10-11T14:20:50.641Z,25.08
2017-10-11T14:23:18.174Z,24.33
2017-10-11T14:25:45.709Z,23.16
2017-10-11T14:28:13.240Z,21.36
2017-10-11T14:30:40.748Z,21.56
2017-10-11T14:33:08.265Z,21.17
2017-10-11T14:35:35.783Z,20.51
2017-10-11T14:38:03.282Z,20.14
2017-10-11T14:40:30.788Z,20.13
2017-10-11T14:42:58.439Z,20.40
2017-10-11T14:45:25.951Z,20.10
2017-10-11T14:47:53.463Z,20.02
2017-10-11T14:50:20.967Z,19.67
2017-10-11T14:52:48.489Z,19.52
2017-10-11T14:55:15.994Z,19.48
2017-10-11T14:57:43.522Z,19.95
2017-10-11T15:00:11.031Z,20.12
2017-10-11T15:02:38.536Z,19.59
2017-10-11T15:05:06.049Z,18.91
2017-10-11T15:07:33.556Z,18.61
2017-10-11T15:10:01.102Z,18.49
2017-10-11T15:12:28.599Z,18.48
2017-10-11T15:14:56.114Z,18.69
2017-10-11T15:17:23.644Z,18.37
2017-10-11T15:19:51.172Z,18.52
2017-10-11T15:22:18.692Z,18.06
2017-10-11T15:24:46.216Z,17.84
2017-10-11T15:27:13.734Z,18.34
2017-10-11T15:29:41.254Z,17.98
2017-10-11T15:32:08.812Z,17.70
2017-10-11T15:34:36.352Z,17.66
2017-10-11T15:37:03.894Z,18.25
2017-10-11T15:39:31.435Z,18.44
2017-10-11T15:41:58.947Z,18.50
2017-10-11T15:44:26.475Z,18.53
2017-10-11T15:46:54.073Z,18.66
2017-10-11T15:49:21.628Z,18.60
2017-10-11T15:51:49.145Z,18.39
2017-10-11T15:54:16.672Z,18.15
2017-10-11T15:56:44.251Z,18.22
2017-10-11T15:59:11.773Z,18.05
2017-10-11T16:01:39.304Z,17.92
2017-10-11T16:04:06.846Z,17.39
2017-10-11T16:06:34.362Z,17.54
2017-10-11T16:09:01.893Z,16.91
2017-10-11T16:11:29.407Z,16.53
2017-10-11T16:13:56.962Z,16.22
2017-10-11T16:16:24.465Z,15.93
2017-10-11T16:18:52.418Z,15.94
2017-10-11T16:21:19.928Z,15.86
2017-10-11T16:23:47.449Z,15.66
2017-10-11T16:26:14.973Z,15.49
2017-10-11T16:28:42.507Z,15.28
2017-10-11T16:31:10.028Z,15.26
2017-10-11T16:33:37.531Z,15.17
2017-10-11T16:36:05.084Z,14.86
2017-10-11T16:38:32.602Z,14.77
2017-10-11T16:41:00.121Z,14.76
2017-10-11T16:43:27.637Z,14.59
2017-10-11T16:45:55.278Z,14.51
2017-10-11T16:48:22.836Z,14.42
2017-10-11T16:50:50.365Z,14.36
2017-10-11T16:53:17.884Z,14.09
2017-10-11T16:55:45.419Z,14.09
2017-10-11T16:58:12.943Z,14.05
2017-10-11T17:00:40.471Z,14.04
2017-10-11T17:03:08.031Z,13.92
2017-10-11T17:05:35.648Z,13.71
2017-10-11T17:08:03.161Z,13.31
2017-10-11T17:10:30.693Z,13.12
2017-10-11T17:12:58.238Z,13.07
2017-10-11T17:15:25.770Z,13.14
2017-10-11T17:17:53.307Z,13.62
2017-10-11T17:20:20.816Z,13.01
2017-10-11T17:22:48.329Z,13.15
2017-10-11T17:25:15.852Z,12.83
2017-10-11T17:27:43.476Z,12.67
2017-10-11T17:30:11.040Z,12.28
2017-10-11T17:32:38.568Z,12.42
2017-10-11T17:35:06.101Z,12.68
2017-10-11T17:37:33.620Z,12.49
2017-10-11T17:40:01.137Z,12.57
2017-10-11T17:42:28.648Z,12.44
2017-10-11T17:44:56.181Z,12.78
2017-10-11T17:47:23.715Z,12.36
2017-10-11T17:49:51.266Z,12.08
2017-10-11T17:52:18.787Z,11.92
2017-10-11T17:54:46.324Z,11.80
2017-10-11T17:57:13.973Z,11.78
2017-10-11T17:59:41.479Z,11.72
2017-10-11T18:02:09.020Z,11.74
2017-10-11T18:04:36.567Z,11.53
2017-10-11T18:07:04.080Z,11.70
2017-10-11T18:09:31.635Z,11.53
2017-10-11T18:11:59.163Z,11.44
2017-10-11T18:14:26.673Z,11.37
2017-10-11T18:16:54.224Z,11.10
2017-10-11T18:19:21.767Z,11.16
2017-10-11T18:21:49.354Z,11.44
2017-10-11T18:24:16.910Z,11.42
2017-10-11T18:26:44.473Z,11.19
2017-10-11T18:29:12.006Z,10.98
2017-10-11T18:31:39.542Z,10.85
2017-10-11T18:34:07.148Z,10.79
2017-10-11T18:36:34.692Z,10.88
2017-10-11T18:39:02.247Z,10.74
2017-10-11T18:41:29.777Z,10.67
2017-10-11T18:43:57.312Z,10.61
2017-10-11T18:46:24.830Z,10.67
2017-10-11T18:48:52.368Z,10.80
2017-10-11T18:51:19.896Z,10.74
2017-10-11T18:53:47.419Z,10.48
2017-10-11T18:56:14.972Z,10.30
2017-10-11T18:58:42.538Z,10.64
2017-10-11T19:01:10.058Z,10.45
2017-10-11T19:03:37.634Z,10.55
2017-10-11T19:06:05.164Z,10.42
2017-10-11T19:08:32.834Z,10.13
2017-10-11T19:11:00.375Z,10.18
2017-10-11T19:13:27.939Z,10.20
2017-10-11T19:15:55.471Z,10.15
2017-10-11T19:18:23.007Z,10.32
2017-10-11T19:20:50.560Z,10.04
2017-10-11T19:23:18.104Z,9.94
2017-10-11T19:25:45.639Z,9.72
2017-10-11T19:28:13.167Z,9.75
2017-10-11T19:30:40.805Z,9.83
2017-10-11T19:33:08.337Z,9.93
2017-10-11T19:35:35.858Z,9.91
2017-10-11T19:38:03.375Z,9.75
2017-10-11T19:40:30.925Z,9.72
2017-10-11T19:42:58.466Z,9.65
2017-10-11T19:45:25.980Z,9.74
2017-10-11T19:47:53.529Z,9.64
2017-10-11T19:50:21.047Z,9.60
2017-10-11T19:52:48.562Z,9.54
2017-10-11T19:55:16.079Z,9.63
2017-10-11T19:57:43.684Z,9.70
2017-10-11T20:00:12.181Z,9.47
2017-10-11T20:02:40.038Z,9.62
2017-10-11T20:05:07.615Z,9.62
2017-10-11T20:07:35.141Z,9.59
2017-10-11T20:10:02.676Z,9.49
2017-10-11T20:12:32.364Z,9.43
2017-10-11T20:15:01.682Z,9.49
2017-10-11T20:17:34.774Z,9.49
2017-10-11T20:20:04.673Z,9.51
2017-10-11T20:22:38.191Z,9.26
2017-10-11T20:25:07.822Z,8.97
2017-10-11T20:27:43.646Z,9.07
2017-10-11T20:30:14.672Z,9.02
2017-10-11T20:32:45.221Z,9.00
2017-10-11T20:35:14.801Z,8.97
2017-10-11T20:37:43.181Z,8.88
2017-10-11T20:40:13.588Z,8.72
2017-10-11T20:42:45.579Z,8.88
2017-10-11T20:45:13.149Z,8.91
2017-10-11T20:47:45.038Z,8.77
2017-10-11T20:50:14.814Z,8.83
2017-10-11T20:52:42.328Z,8.78
2017-10-11T20:55:09.856Z,9.01
2017-10-11T20:57:37.371Z,8.90
2017-10-11T21:00:04.913Z,8.75
2017-10-11T21:02:32.431Z,8.48
2017-10-11T21:05:00.051Z,8.45
2017-10-11T21:07:27.583Z,8.58
2017-10-11T21:09:55.146Z,8.39
2017-10-11T21:12:22.727Z,8.46
2017-10-11T21:14:50.266Z,8.45
2017-10-11T21:17:17.775Z,8.68
2017-10-11T21:19:45.294Z,8.45
2017-10-11T21:22:12.821Z,8.34
2017-10-11T21:24:40.357Z,8.07
2017-10-11T21:27:07.871Z,8.13
2017-10-11T21:29:35.406Z,7.93
2017-10-11T21:32:02.914Z,7.94
2017-10-11T21:34:30.455Z,8.11
2017-10-11T21:36:57.959Z,8.44
2017-10-11T21:39:25.611Z,8.13
2017-10-11T21:41:53.140Z,8.18
2017-10-11T21:44:20.665Z,8.29
2017-10-11T21:46:48.347Z,8.08
2017-10-11T21:49:15.882Z,7.86
2017-10-11T21:51:43.417Z,7.83
2017-10-11T21:54:10.916Z,7.58
2017-10-11T21:56:38.435Z,7.79
2017-10-11T21:59:06.039Z,7.85
2017-10-11T22:01:33.554Z,7.74
2017-10-11T22:04:01.090Z,7.77
2017-10-11T22:06:28.621Z,7.78
2017-10-11T22:08:56.145Z,7.63
2017-10-11T22:11:23.728Z,7.46
2017-10-11T22:13:51.249Z,7.28
2017-10-11T22:16:18.783Z,7.25
2017-10-11T22:18:46.300Z,7.31
2017-10-11T22:21:13.862Z,7.34
2017-10-11T22:23:41.414Z,7.24
2017-10-11T22:26:08.951Z,7.34
2017-10-11T22:28:36.562Z,7.36
2017-10-11T22:31:04.075Z,7.53
2017-10-11T22:33:31.631Z,7.42
2017-10-11T22:35:59.160Z,7.34
2017-10-11T22:38:26.679Z,7.31
2017-10-11T22:40:54.194Z,7.40
2017-10-11T22:43:21.712Z,7.14
2017-10-11T22:45:49.230Z,6.96
2017-10-11T22:48:16.804Z,7.00
2017-10-11T22:50:44.331Z,7.17
2017-10-11T22:53:11.831Z,7.18
2017-10-11T22:55:39.378Z,7.12
2017-10-11T22:58:06.944Z,7.14
2017-10-11T23:00:34.448Z,6.93
2017-10-11T23:03:01.965Z,7.01
2017-10-11T23:05:29.502Z,6.71
2017-10-11T23:07:57.080Z,6.56
2017-10-11T23:10:24.615Z,6.50
2017-10-11T23:12:52.128Z,6.49
2017-10-11T23:15:19.640Z,6.52
2017-10-11T23:17:47.176Z,6.64
2017-10-11T23:20:14.687Z,6.85
2017-10-11T23:22:42.183Z,6.90
2017-10-11T23:25:09.696Z,6.90
2017-10-11T23:27:37.215Z,7.08
2017-10-11T23:30:04.739Z,6.94
2017-10-11T23:32:32.353Z,6.78
2017-10-11T23:34:59.891Z,6.56
2017-10-11T23:37:27.392Z,6.82
2017-10-11T23:39:54.899Z,6.95
2017-10-11T23:42:22.397Z,6.68
2017-10-11T23:44:49.901Z,6.44
2017-10-11T23:47:17.419Z,6.44
2017-10-11T23:49:44.934Z,6.69
2017-10-11T23:52:12.446Z,6.82
2017-10-11T23:54:40.038Z,6.85
2017-10-11T23:57:07.565Z,6.76
2017-10-11T23:59:38.517Z,6.80
